createdAt,value
2024-01-03T00:01:15.519Z,7.58
2024-01-03T00:03:41.946Z,7.55
2024-01-03T00:06:08.340Z,7.52
2024-01-03T00:08:34.707Z,7.51
2024-01-03T00:11:01.041Z,7.52
2024-01-03T00:13:27.380Z,7.57
2024-01-03T00:15:53.661Z,7.56
2024-01-03T00:18:20.155Z,7.53
2024-01-03T00:20:46.537Z,7.57
2024-01-03T00:23:13.073Z,7.55
2024-01-03T00:25:39.433Z,7.53
2024-01-03T00:28:06.114Z,7.53
2024-01-03T00:30:32.622Z,7.61
2024-01-03T00:33:04.609Z,7.56
2024-01-03T00:35:32.278Z,7.59
2024-01-03T00:37:58.649Z,7.59
2024-01-03T00:40:24.986Z,7.50
2024-01-03T00:42:51.302Z,7.40
2024-01-03T00:45:17.601Z,7.59
2024-01-03T00:47:44.008Z,7.55
2024-01-03T00:50:10.367Z,7.56
2024-01-03T00:52:36.676Z,7.57
2024-01-03T00:55:03.014Z,7.62
2024-01-03T00:57:29.289Z,7.50
2024-01-03T00:59:55.631Z,7.56
2024-01-03T01:02:21.979Z,7.49
2024-01-03T01:04:48.279Z,7.58
2024-01-03T01:07:14.567Z,7.51
2024-01-03T01:09:40.841Z,7.54
2024-01-03T01:12:07.134Z,7.53
2024-01-03T01:14:33.484Z,7.50
2024-01-03T01:16:59.757Z,7.51
2024-01-03T01:19:26.159Z,7.57
2024-01-03T01:21:52.627Z,7.52
2024-01-03T01:24:18.947Z,7.41
2024-01-03T01:26:45.348Z,7.51
2024-01-03T01:29:11.669Z,7.51
2024-01-03T01:31:37.964Z,7.47
2024-01-03T01:34:04.423Z,7.58
2024-01-03T01:36:30.915Z,7.53
2024-01-03T01:38:57.267Z,7.55
2024-01-03T01:41:23.657Z,7.58
2024-01-03T01:43:49.991Z,7.47
2024-01-03T01:46:16.363Z,7.52
2024-01-03T01:48:42.845Z,7.47
2024-01-03T01:51:09.198Z,7.50
2024-01-03T01:53:35.600Z,7.47
2024-01-03T01:56:01.952Z,7.53
2024-01-03T01:58:30.514Z,7.52
2024-01-03T02:00:56.843Z,7.53
2024-01-03T02:03:23.243Z,7.45
2024-01-03T02:05:49.642Z,7.41
2024-01-03T02:08:16.022Z,7.39
2024-01-03T02:10:42.771Z,7.37
2024-01-03T02:13:09.052Z,7.33
2024-01-03T02:15:35.326Z,7.33
2024-01-03T02:18:01.774Z,7.43
2024-01-03T02:20:28.184Z,7.35
2024-01-03T02:22:54.477Z,7.42
2024-01-03T02:25:20.758Z,7.40
2024-01-03T02:27:47.093Z,7.39
2024-01-03T02:30:13.395Z,7.31
2024-01-03T02:32:39.877Z,7.37
2024-01-03T02:35:06.237Z,7.31
2024-01-03T02:37:32.498Z,7.39
2024-01-03T02:39:58.761Z,7.43
2024-01-03T02:42:25.096Z,7.37
2024-01-03T02:44:51.439Z,7.18
2024-01-03T02:47:17.775Z,6.99
2024-01-03T02:49:44.084Z,6.99
2024-01-03T02:52:10.317Z,6.97
2024-01-03T02:54:36.583Z,6.98
2024-01-03T02:57:02.865Z,7.09
2024-01-03T02:59:29.186Z,7.14
2024-01-03T03:01:55.472Z,7.04
2024-01-03T03:04:21.773Z,6.96
2024-01-03T03:06:48.200Z,7.07
2024-01-03T03:09:17.204Z,6.98
2024-01-03T03:11:44.178Z,6.99
2024-01-03T03:14:10.582Z,7.04
2024-01-03T03:16:36.904Z,7.10
2024-01-03T03:19:03.349Z,7.07
2024-01-03T03:21:29.712Z,7.01
2024-01-03T03:23:56.110Z,7.04
2024-01-03T03:26:22.527Z,7.08
2024-01-03T03:28:48.839Z,7.01
2024-01-03T03:31:15.107Z,7.08
2024-01-03T03:33:41.511Z,7.09
2024-01-03T03:36:07.905Z,7.10
2024-01-03T03:38:34.164Z,7.13
2024-01-03T03:41:00.558Z,7.17
2024-01-03T03:43:26.820Z,7.13
2024-01-03T03:45:53.112Z,7.16
2024-01-03T03:48:19.637Z,7.13
2024-01-03T03:50:45.990Z,7.05
2024-01-03T03:53:12.275Z,6.93
2024-01-03T03:55:38.594Z,6.94
2024-01-03T03:58:04.885Z,6.91
2024-01-03T04:00:31.199Z,6.97
2024-01-03T04:02:57.544Z,7.01
2024-01-03T04:05:23.958Z,7.00
2024-01-03T04:07:50.307Z,7.04
2024-01-03T04:10:16.624Z,7.02
2024-01-03T04:12:42.936Z,6.99
2024-01-03T04:15:09.277Z,7.14
2024-01-03T04:17:35.651Z,7.14
2024-01-03T04:20:02.033Z,7.10
2024-01-03T04:22:28.271Z,6.95
2024-01-03T04:24:54.522Z,7.05
2024-01-03T04:27:20.828Z,7.12
2024-01-03T04:29:47.138Z,7.02
2024-01-03T04:32:13.416Z,7.02
2024-01-03T04:34:39.873Z,7.01
2024-01-03T04:37:06.215Z,6.94
2024-01-03T04:39:32.561Z,7.09
2024-01-03T04:41:58.797Z,7.16
2024-01-03T04:44:25.137Z,7.14
2024-01-03T04:46:51.487Z,7.03
2024-01-03T04:49:17.825Z,6.98
2024-01-03T04:51:44.094Z,7.01
2024-01-03T04:54:10.490Z,6.98
2024-01-03T04:56:36.901Z,7.06
2024-01-03T04:59:03.286Z,7.25
2024-01-03T05:01:29.593Z,7.06
2024-01-03T05:03:56.019Z,7.11
2024-01-03T05:06:22.498Z,7.11
2024-01-03T05:08:48.942Z,7.13
2024-01-03T05:11:17.396Z,7.13
2024-01-03T05:13:44.038Z,7.03
2024-01-03T05:16:10.390Z,7.05
2024-01-03T05:18:36.798Z,7.05
2024-01-03T05:21:03.168Z,7.02
2024-01-03T05:23:32.696Z,6.96
2024-01-03T05:25:58.934Z,6.93
2024-01-03T05:28:25.208Z,6.98
2024-01-03T05:30:51.540Z,6.97
2024-01-03T05:33:17.945Z,6.85
2024-01-03T05:35:44.298Z,6.96
2024-01-03T05:38:10.900Z,6.79
2024-01-03T05:40:37.396Z,6.76
2024-01-03T05:43:03.680Z,6.67
2024-01-03T05:45:30.004Z,6.78
2024-01-03T05:47:56.476Z,6.80
2024-01-03T05:50:22.838Z,6.73
2024-01-03T05:52:49.097Z,6.65
2024-01-03T05:55:15.423Z,6.65
2024-01-03T05:57:42.045Z,6.72
2024-01-03T06:00:08.342Z,6.62
2024-01-03T06:02:34.591Z,6.56
2024-01-03T06:05:00.901Z,6.51
2024-01-03T06:07:27.177Z,6.45
2024-01-03T06:09:53.515Z,6.47
2024-01-03T06:12:19.873Z,6.59
2024-01-03T06:14:46.265Z,6.60
2024-01-03T06:17:12.568Z,6.61
2024-01-03T06:19:38.865Z,6.54
2024-01-03T06:22:05.186Z,6.53
2024-01-03T06:24:31.476Z,6.60
2024-01-03T06:26:57.784Z,6.64
2024-01-03T06:29:24.173Z,6.61
2024-01-03T06:31:50.444Z,6.75
2024-01-03T06:34:16.884Z,6.62
2024-01-03T06:36:43.254Z,6.58
2024-01-03T06:39:09.484Z,6.52
2024-01-03T06:41:35.853Z,6.50
2024-01-03T06:44:02.184Z,6.56
2024-01-03T06:46:28.595Z,6.57
2024-01-03T06:48:54.997Z,6.58
2024-01-03T06:51:21.349Z,6.51
2024-01-03T06:53:47.617Z,6.61
2024-01-03T06:56:13.901Z,6.56
2024-01-03T06:58:40.190Z,6.43
2024-01-03T07:01:06.523Z,6.54
2024-01-03T07:03:32.866Z,6.52
2024-01-03T07:05:59.409Z,6.51
2024-01-03T07:08:25.807Z,6.49
2024-01-03T07:10:52.158Z,6.52
2024-01-03T07:13:18.465Z,6.56
2024-01-03T07:15:44.926Z,6.51
2024-01-03T07:18:11.527Z,6.50
2024-01-03T07:20:38.198Z,6.55
2024-01-03T07:23:05.283Z,6.62
2024-01-03T07:25:31.712Z,6.63
2024-01-03T07:27:58.052Z,6.58
2024-01-03T07:30:24.393Z,6.56
2024-01-03T07:32:50.791Z,6.68
2024-01-03T07:35:17.195Z,6.66
2024-01-03T07:37:43.539Z,6.65
2024-01-03T07:40:09.909Z,6.63
2024-01-03T07:42:36.229Z,6.62
2024-01-03T07:45:02.554Z,6.68
2024-01-03T07:47:28.908Z,6.74
2024-01-03T07:49:55.219Z,6.74
2024-01-03T07:52:21.489Z,6.75
2024-01-03T07:54:47.762Z,6.81
2024-01-03T07:57:14.022Z,6.86
2024-01-03T07:59:40.327Z,6.81
2024-01-03T08:02:06.621Z,6.85
2024-01-03T08:04:32.975Z,6.87
2024-01-03T08:06:59.340Z,6.90
2024-01-03T08:09:25.654Z,6.79
2024-01-03T08:11:51.990Z,6.78
2024-01-03T08:14:18.386Z,6.83
2024-01-03T08:16:44.786Z,6.89
2024-01-03T08:19:11.251Z,6.84
2024-01-03T08:21:37.708Z,6.89
2024-01-03T08:24:04.038Z,6.78
2024-01-03T08:26:30.340Z,6.83
2024-01-03T08:28:56.645Z,6.81
2024-01-03T08:31:22.988Z,6.85
2024-01-03T08:33:49.622Z,6.79
2024-01-03T08:36:16.238Z,6.71
2024-01-03T08:38:42.604Z,6.73
2024-01-03T08:41:08.784Z,6.78
2024-01-03T08:43:35.019Z,6.75
2024-01-03T08:46:01.275Z,6.77
2024-01-03T08:48:27.699Z,6.74
2024-01-03T08:50:54.291Z,6.83
2024-01-03T08:53:20.583Z,6.68
2024-01-03T08:55:46.872Z,6.64
2024-01-03T08:58:13.213Z,6.68
2024-01-03T09:00:39.524Z,6.63
2024-01-03T09:03:05.835Z,6.62
2024-01-03T09:05:32.254Z,6.67
2024-01-03T09:07:59.171Z,6.78
2024-01-03T09:10:26.478Z,6.66
2024-01-03T09:12:52.772Z,6.58
2024-01-03T09:15:19.085Z,6.41
2024-01-03T09:17:45.602Z,6.48
2024-01-03T09:20:12.033Z,6.40
2024-01-03T09:22:38.406Z,6.50
2024-01-03T09:25:04.682Z,6.46
2024-01-03T09:27:30.985Z,6.51
2024-01-03T09:29:57.303Z,6.45
2024-01-03T09:32:23.684Z,6.42
2024-01-03T09:34:49.998Z,6.43
2024-01-03T09:37:16.295Z,6.51
2024-01-03T09:39:42.583Z,6.53
2024-01-03T09:42:09.207Z,6.52
2024-01-03T09:44:35.723Z,6.52
2024-01-03T09:47:02.019Z,6.65
2024-01-03T09:49:28.431Z,6.62
2024-01-03T09:51:54.811Z,6.71
2024-01-03T09:54:21.120Z,6.75
2024-01-03T09:56:47.475Z,6.70
2024-01-03T09:59:13.883Z,6.70
2024-01-03T10:01:40.162Z,6.71
2024-01-03T10:04:06.453Z,6.74
2024-01-03T10:06:32.774Z,6.79
2024-01-03T10:08:59.242Z,6.69
2024-01-03T10:11:25.682Z,6.83
2024-01-03T10:13:52.043Z,6.77
2024-01-03T10:16:18.320Z,6.79
2024-01-03T10:18:44.715Z,6.74
2024-01-03T10:21:11.127Z,6.78
2024-01-03T10:23:37.636Z,6.76
2024-01-03T10:26:04.005Z,6.82
2024-01-03T10:28:30.289Z,6.86
2024-01-03T10:30:56.689Z,6.74
2024-01-03T10:33:23.134Z,6.78
2024-01-03T10:35:49.933Z,6.69
2024-01-03T10:38:16.204Z,6.67
2024-01-03T10:40:42.548Z,6.73
2024-01-03T10:43:08.897Z,6.71
2024-01-03T10:45:35.202Z,6.71
2024-01-03T10:48:01.579Z,6.66
2024-01-03T10:50:27.977Z,6.66
2024-01-03T10:52:54.232Z,6.54
2024-01-03T10:55:20.454Z,6.49
2024-01-03T10:57:46.700Z,6.30
2024-01-03T11:00:13.358Z,6.28
2024-01-03T11:02:39.641Z,6.27
2024-01-03T11:05:06.106Z,6.19
2024-01-03T11:07:32.399Z,6.12
2024-01-03T11:09:58.681Z,6.18
2024-01-03T11:12:24.967Z,6.18
2024-01-03T11:14:53.578Z,6.16
2024-01-03T11:17:20.088Z,6.12
2024-01-03T11:19:46.428Z,6.13
2024-01-03T11:22:12.875Z,6.10
2024-01-03T11:24:39.127Z,6.21
2024-01-03T11:27:06.348Z,6.26
2024-01-03T11:29:33.303Z,6.35
2024-01-03T11:31:59.549Z,6.35
2024-01-03T11:34:25.957Z,6.39
2024-01-03T11:36:52.323Z,6.30
2024-01-03T11:39:21.513Z,6.28
2024-01-03T11:41:47.807Z,6.31
2024-01-03T11:44:14.090Z,6.41
2024-01-03T11:46:40.381Z,6.40
2024-01-03T11:49:06.731Z,6.51
2024-01-03T11:51:33.099Z,6.58
2024-01-03T11:53:59.440Z,6.60
2024-01-03T11:56:25.760Z,6.53
2024-01-03T11:58:52.136Z,6.54
2024-01-03T12:01:18.661Z,6.63
2024-01-03T12:03:44.937Z,6.76
2024-01-03T12:06:11.338Z,6.64
2024-01-03T12:08:37.693Z,6.63
2024-01-03T12:11:04.025Z,6.64
2024-01-03T12:13:30.309Z,6.71
2024-01-03T12:15:56.566Z,6.71
2024-01-03T12:18:23.138Z,6.73
2024-01-03T12:20:49.704Z,6.69
2024-01-03T12:23:16.568Z,6.71
2024-01-03T12:25:43.374Z,6.64
2024-01-03T12:28:09.599Z,6.69
2024-01-03T12:30:36.198Z,6.70
2024-01-03T12:33:02.798Z,6.75
2024-01-03T12:35:29.251Z,6.70
2024-01-03T12:37:57.318Z,6.75
2024-01-03T12:40:24.275Z,6.77
2024-01-03T12:42:50.649Z,6.75
2024-01-03T12:45:16.933Z,6.79
2024-01-03T12:47:43.379Z,6.75
2024-01-03T12:50:09.913Z,6.76
2024-01-03T12:52:36.307Z,6.75
2024-01-03T12:55:02.745Z,6.78
2024-01-03T12:57:29.080Z,6.81
2024-01-03T12:59:55.494Z,6.95
2024-01-03T13:02:21.923Z,6.92
2024-01-03T13:04:48.454Z,7.03
2024-01-03T13:07:14.742Z,6.94
2024-01-03T13:09:41.040Z,6.87
2024-01-03T13:12:07.534Z,6.94
2024-01-03T13:14:33.967Z,6.98
2024-01-03T13:17:00.379Z,6.90
2024-01-03T13:19:26.919Z,6.90
2024-01-03T13:21:53.386Z,6.98
2024-01-03T13:24:19.875Z,6.90
2024-01-03T13:26:46.241Z,6.96
2024-01-03T13:29:12.548Z,6.90
2024-01-03T13:31:38.972Z,6.89
2024-01-03T13:34:05.584Z,7.00
2024-01-03T13:36:32.216Z,6.98
2024-01-03T13:38:58.706Z,6.95
2024-01-03T13:41:25.130Z,6.90
2024-01-03T13:43:51.615Z,6.98
2024-01-03T13:46:18.262Z,7.05
2024-01-03T13:48:44.696Z,6.85
2024-01-03T13:51:11.224Z,6.90
2024-01-03T13:53:37.670Z,6.96
2024-01-03T13:56:04.023Z,6.91
2024-01-03T13:58:33.031Z,6.87
2024-01-03T14:00:59.398Z,6.86
2024-01-03T14:03:25.984Z,6.91
2024-01-03T14:05:52.532Z,6.85
2024-01-03T14:08:19.091Z,6.90
2024-01-03T14:10:45.504Z,6.93
2024-01-03T14:13:12.155Z,7.02
2024-01-03T14:15:38.578Z,7.04
2024-01-03T14:18:05.059Z,7.02
2024-01-03T14:20:32.427Z,6.97
2024-01-03T14:22:59.686Z,7.04
2024-01-03T14:25:25.937Z,7.04
2024-01-03T14:27:52.246Z,7.17
2024-01-03T14:30:18.691Z,7.16
2024-01-03T14:32:45.173Z,7.11
2024-01-03T14:35:11.666Z,7.01
2024-01-03T14:37:38.517Z,7.04
2024-01-03T14:40:04.984Z,7.10
2024-01-03T14:42:31.261Z,6.85
2024-01-03T14:44:57.511Z,6.79
2024-01-03T14:47:23.850Z,6.74
2024-01-03T14:49:50.231Z,6.81
2024-01-03T14:52:16.603Z,6.78
2024-01-03T14:54:42.926Z,6.94
2024-01-03T14:57:09.502Z,6.85
2024-01-03T14:59:35.894Z,6.91
2024-01-03T15:02:02.159Z,6.92
2024-01-03T15:04:28.516Z,6.99
2024-01-03T15:06:54.904Z,6.90
2024-01-03T15:09:21.201Z,6.86
2024-01-03T15:11:47.492Z,6.96
2024-01-03T15:14:16.032Z,6.99
2024-01-03T15:16:43.082Z,6.97
2024-01-03T15:19:09.570Z,6.79
2024-01-03T15:21:36.089Z,6.70
2024-01-03T15:24:02.454Z,6.72
2024-01-03T15:26:28.763Z,6.75
2024-01-03T15:28:55.106Z,6.85
2024-01-03T15:31:21.483Z,6.83
2024-01-03T15:33:47.937Z,6.82
2024-01-03T15:36:14.349Z,6.77
2024-01-03T15:38:40.738Z,6.81
2024-01-03T15:41:07.078Z,6.91
2024-01-03T15:43:33.317Z,6.90
2024-01-03T15:45:59.619Z,6.82
2024-01-03T15:48:26.028Z,6.74
2024-01-03T15:50:52.415Z,6.82
2024-01-03T15:53:18.708Z,6.80
2024-01-03T15:55:45.074Z,6.81
2024-01-03T15:58:11.318Z,6.89
2024-01-03T16:00:37.671Z,6.81
2024-01-03T16:03:04.041Z,6.75
2024-01-03T16:05:30.430Z,6.75
2024-01-03T16:07:56.821Z,6.84
2024-01-03T16:10:23.543Z,6.75
2024-01-03T16:12:49.868Z,6.78
2024-01-03T16:15:16.292Z,6.80
2024-01-03T16:17:42.858Z,6.77
2024-01-03T16:20:09.219Z,6.74
2024-01-03T16:22:35.979Z,6.81
2024-01-03T16:25:02.343Z,6.72
2024-01-03T16:27:29.860Z,6.71
2024-01-03T16:29:56.287Z,6.61
2024-01-03T16:32:22.653Z,6.67
2024-01-03T16:34:48.994Z,6.63
2024-01-03T16:37:15.321Z,6.58
2024-01-03T16:39:41.678Z,6.60
2024-01-03T16:42:08.036Z,6.71
2024-01-03T16:44:34.295Z,6.71
2024-01-03T16:47:00.578Z,6.74
2024-01-03T16:49:27.099Z,6.69
2024-01-03T16:51:53.612Z,6.71
2024-01-03T16:54:20.089Z,6.79
2024-01-03T16:56:46.501Z,6.75
2024-01-03T16:59:12.972Z,6.74
2024-01-03T17:01:39.366Z,6.67
2024-01-03T17:04:05.737Z,6.65
2024-01-03T17:06:32.090Z,6.63
2024-01-03T17:08:58.483Z,6.73
2024-01-03T17:11:24.803Z,6.72
2024-01-03T17:13:51.083Z,6.76
2024-01-03T17:16:17.369Z,6.74
2024-01-03T17:18:44.192Z,6.72
2024-01-03T17:21:10.677Z,6.67
2024-01-03T17:23:37.124Z,6.66
2024-01-03T17:26:03.450Z,6.57
2024-01-03T17:28:29.876Z,6.53
2024-01-03T17:30:56.299Z,6.58
2024-01-03T17:33:22.741Z,6.52
2024-01-03T17:35:49.061Z,6.52
2024-01-03T17:38:15.373Z,6.58
2024-01-03T17:40:41.711Z,6.50
2024-01-03T17:43:08.146Z,6.43
2024-01-03T17:45:34.564Z,6.36
2024-01-03T17:48:01.026Z,6.30
2024-01-03T17:50:27.433Z,6.28
2024-01-03T17:52:53.802Z,6.31
2024-01-03T17:55:20.064Z,6.32
2024-01-03T17:57:46.387Z,6.32
2024-01-03T18:00:12.790Z,6.38
2024-01-03T18:02:39.291Z,6.26
2024-01-03T18:05:06.094Z,6.21
2024-01-03T18:07:32.359Z,6.22
2024-01-03T18:09:58.706Z,6.27
2024-01-03T18:12:25.021Z,6.35
2024-01-03T18:14:51.364Z,6.30
2024-01-03T18:17:17.716Z,6.32
2024-01-03T18:19:44.150Z,6.43
2024-01-03T18:22:10.541Z,6.35
2024-01-03T18:24:36.808Z,6.40
2024-01-03T18:27:03.214Z,6.43
2024-01-03T18:29:29.697Z,6.46
2024-01-03T18:31:56.044Z,6.47
2024-01-03T18:34:22.503Z,6.43
2024-01-03T18:36:48.981Z,6.48
2024-01-03T18:39:15.325Z,6.50
2024-01-03T18:41:41.842Z,6.51
2024-01-03T18:44:08.183Z,6.52
2024-01-03T18:46:34.449Z,6.59
2024-01-03T18:49:00.914Z,6.55
2024-01-03T18:51:27.413Z,6.54
2024-01-03T18:53:53.906Z,6.51
2024-01-03T18:56:20.315Z,6.47
2024-01-03T18:58:46.610Z,6.52
2024-01-03T19:01:13.067Z,6.56
2024-01-03T19:03:39.441Z,6.55
2024-01-03T19:06:05.775Z,6.58
2024-01-03T19:08:35.203Z,6.52
2024-01-03T19:11:01.644Z,6.42
2024-01-03T19:13:27.935Z,6.39
2024-01-03T19:15:54.328Z,6.50
2024-01-03T19:18:20.875Z,6.41
2024-01-03T19:20:47.390Z,6.35
2024-01-03T19:23:13.756Z,6.23
2024-01-03T19:25:40.156Z,6.34
2024-01-03T19:28:06.771Z,6.41
2024-01-03T19:30:33.483Z,6.30
2024-01-03T19:33:00.074Z,6.23
2024-01-03T19:35:26.550Z,6.35
2024-01-03T19:37:52.933Z,6.34
2024-01-03T19:40:19.250Z,6.20
2024-01-03T19:42:45.580Z,6.19
2024-01-03T19:45:12.548Z,6.23
2024-01-03T19:47:39.875Z,6.21
2024-01-03T19:50:06.398Z,6.03
2024-01-03T19:52:33.066Z,6.00
2024-01-03T19:54:59.386Z,6.02
2024-01-03T19:57:25.702Z,5.98
2024-01-03T19:59:52.016Z,5.94
2024-01-03T20:02:18.372Z,5.99
2024-01-03T20:04:44.653Z,5.92
2024-01-03T20:07:11.168Z,5.98
2024-01-03T20:09:37.700Z,6.02
2024-01-03T20:12:04.262Z,5.90
2024-01-03T20:14:30.735Z,5.89
2024-01-03T20:16:57.401Z,6.02
2024-01-03T20:19:23.980Z,6.04
2024-01-03T20:21:50.404Z,6.03
2024-01-03T20:24:16.859Z,5.97
2024-01-03T20:26:43.458Z,6.03
2024-01-03T20:29:10.042Z,6.07
2024-01-03T20:31:36.388Z,6.13
2024-01-03T20:34:03.276Z,6.10
2024-01-03T20:36:29.849Z,6.08
2024-01-03T20:38:56.188Z,6.19
2024-01-03T20:41:22.536Z,6.11
2024-01-03T20:43:48.901Z,6.09
2024-01-03T20:46:15.195Z,5.99
2024-01-03T20:51:07.888Z,5.95
2024-01-03T20:53:34.246Z,5.97
2024-01-03T20:56:00.693Z,6.00
2024-01-03T20:58:27.416Z,5.99
2024-01-03T21:00:54.205Z,5.91
2024-01-03T21:03:20.803Z,5.95
2024-01-03T21:05:47.319Z,5.95
2024-01-03T21:08:13.707Z,6.03
2024-01-03T21:10:39.993Z,6.05
2024-01-03T21:13:06.275Z,6.04
2024-01-03T21:15:32.634Z,6.18
2024-01-03T21:17:59.829Z,6.16
2024-01-03T21:20:26.350Z,6.14
2024-01-03T21:22:52.646Z,6.12
2024-01-03T21:25:18.940Z,6.04
2024-01-03T21:27:50.505Z,5.99
2024-01-03T21:30:18.718Z,6.16
2024-01-03T21:32:45.308Z,5.95
2024-01-03T21:35:11.702Z,5.99
2024-01-03T21:37:38.162Z,5.95
2024-01-03T21:40:04.450Z,5.99
2024-01-03T21:42:30.796Z,6.12
2024-01-03T21:44:57.124Z,5.92
2024-01-03T21:47:23.422Z,5.89
2024-01-03T21:49:49.777Z,5.92
2024-01-03T21:52:16.135Z,5.86
2024-01-03T21:54:42.403Z,5.96
2024-01-03T21:57:08.827Z,5.88
2024-01-03T21:59:35.324Z,5.86
2024-01-03T22:02:01.713Z,6.09
2024-01-03T22:04:28.130Z,6.06
2024-01-03T22:06:54.630Z,6.02
2024-01-03T22:09:21.193Z,6.08
2024-01-03T22:11:47.624Z,5.95
2024-01-03T22:14:13.972Z,5.86
2024-01-03T22:16:40.281Z,5.83
2024-01-03T22:19:06.714Z,5.78
2024-01-03T22:21:33.130Z,5.80
2024-01-03T22:23:59.473Z,5.76
2024-01-03T22:26:25.798Z,5.88
2024-01-03T22:28:52.075Z,5.81
2024-01-03T22:31:18.618Z,5.81
2024-01-03T22:33:45.113Z,5.91
2024-01-03T22:36:11.521Z,5.87
2024-01-03T22:38:37.872Z,5.79
2024-01-03T22:41:04.200Z,5.79
2024-01-03T22:43:30.461Z,5.79
2024-01-03T22:45:56.783Z,5.96
2024-01-03T22:48:23.160Z,5.90
2024-01-03T22:50:49.604Z,5.77
2024-01-03T22:53:15.862Z,5.59
2024-01-03T22:55:42.154Z,5.51
2024-01-03T22:58:08.548Z,5.44
2024-01-03T23:00:34.986Z,5.42
2024-01-03T23:03:01.356Z,5.29
2024-01-03T23:05:27.764Z,5.26
2024-01-03T23:07:54.140Z,5.09
2024-01-03T23:10:20.449Z,4.85
2024-01-03T23:12:46.749Z,4.81
2024-01-03T23:15:13.126Z,4.87
2024-01-03T23:17:39.733Z,4.74
2024-01-03T23:20:06.336Z,4.84
2024-01-03T23:22:32.701Z,4.80
2024-01-03T23:24:59.052Z,4.84
2024-01-03T23:27:25.417Z,4.72
2024-01-03T23:29:51.743Z,4.76
2024-01-03T23:32:18.042Z,4.86
2024-01-03T23:34:44.360Z,4.86
2024-01-03T23:37:10.624Z,4.75
2024-01-03T23:39:36.948Z,4.81
2024-01-03T23:42:03.670Z,4.92
2024-01-03T23:44:30.101Z,4.96
2024-01-03T23:46:56.441Z,5.10
2024-01-03T23:49:23.009Z,5.06
2024-01-03T23:51:49.386Z,5.09
2024-01-03T23:54:15.726Z,5.05
2024-01-03T23:56:42.056Z,5.05
2024-01-03T23:59:08.389Z,5.11
